sensor_id;sensor_type;location;lat;lon;timestamp;pressure;altitude;pressure_sealevel;temperature;humidity
43071;BME280;36278;47.952;21.714;2024-01-30T00:01:24;102792.72;;;-1.70;100.00
43071;BME280;36278;47.952;21.714;2024-01-30T00:03:49;102782.28;;;-1.73;100.00
43071;BME280;36278;47.952;21.714;2024-01-30T00:06:18;102795.28;;;-1.72;100.00
43071;BME280;36278;47.952;21.714;2024-01-30T00:08:44;102787.47;;;-1.73;100.00
43071;BME280;36278;47.952;21.714;2024-01-30T00:11:11;102777.91;;;-1.76;100.00
43071;BME280;36278;47.952;21.714;2024-01-30T00:13:37;102787.50;;;-1.72;100.00
43071;BME280;36278;47.952;21.714;2024-01-30T00:16:02;102799.59;;;-1.72;100.00
43071;BME280;36278;47.952;21.714;2024-01-30T00:18:29;102800.59;;;-1.64;100.00
43071;BME280;36278;47.952;21.714;2024-01-30T00:20:54;102804.06;;;-1.63;100.00
43071;BME280;36278;47.952;21.714;2024-01-30T00:23:20;102803.25;;;-1.61;100.00
43071;BME280;36278;47.952;21.714;2024-01-30T00:25:45;102806.59;;;-1.70;100.00
43071;BME280;36278;47.952;21.714;2024-01-30T00:28:10;102795.38;;;-1.65;100.00
43071;BME280;36278;47.952;21.714;2024-01-30T00:30:36;102802.19;;;-1.75;100.00
43071;BME280;36278;47.952;21.714;2024-01-30T00:33:01;102803.03;;;-1.75;100.00
43071;BME280;36278;47.952;21.714;2024-01-30T00:35:27;102810.13;;;-1.64;100.00
43071;BME280;36278;47.952;21.714;2024-01-30T00:37:53;102814.47;;;-1.63;100.00
43071;BME280;36278;47.952;21.714;2024-01-30T00:40:18;102809.22;;;-1.66;100.00
43071;BME280;36278;47.952;21.714;2024-01-30T00:42:45;102807.38;;;-1.74;100.00
43071;BME280;36278;47.952;21.714;2024-01-30T00:45:13;102816.94;;;-1.73;100.00
43071;BME280;36278;47.952;21.714;2024-01-30T00:47:39;102815.94;;;-1.81;100.00
43071;BME280;36278;47.952;21.714;2024-01-30T00:50:05;102810.72;;;-1.84;100.00
43071;BME280;36278;47.952;21.714;2024-01-30T00:52:30;102815.91;;;-1.84;100.00
43071;BME280;36278;47.952;21.714;2024-01-30T00:54:57;102822.09;;;-1.76;100.00
43071;BME280;36278;47.952;21.714;2024-01-30T00:57:22;102818.63;;;-1.75;100.00
43071;BME280;36278;47.952;21.714;2024-01-30T00:59:48;102808.28;;;-1.72;100.00
43071;BME280;36278;47.952;21.714;2024-01-30T01:02:13;102815.16;;;-1.77;100.00
43071;BME280;36278;47.952;21.714;2024-01-30T01:04:40;102816.06;;;-1.72;100.00
43071;BME280;36278;47.952;21.714;2024-01-30T01:07:05;102812.59;;;-1.72;100.00
43071;BME280;36278;47.952;21.714;2024-01-30T01:09:31;102807.38;;;-1.74;100.00
43071;BME280;36278;47.952;21.714;2024-01-30T01:11:56;102807.34;;;-1.77;100.00
43071;BME280;36278;47.952;21.714;2024-01-30T01:14:22;102809.00;;;-1.80;100.00
43071;BME280;36278;47.952;21.714;2024-01-30T01:16:47;102798.66;;;-1.79;100.00
43071;BME280;36278;47.952;21.714;2024-01-30T01:19:12;102799.47;;;-1.83;100.00
43071;BME280;36278;47.952;21.714;2024-01-30T01:21:38;102797.81;;;-1.78;100.00
43071;BME280;36278;47.952;21.714;2024-01-30T01:24:04;102796.09;;;-1.76;100.00
43071;BME280;36278;47.952;21.714;2024-01-30T01:26:29;102796.13;;;-1.73;100.00
43071;BME280;36278;47.952;21.714;2024-01-30T01:28:55;102800.47;;;-1.73;100.00
43071;BME280;36278;47.952;21.714;2024-01-30T01:31:20;102790.09;;;-1.72;100.00
43071;BME280;36278;47.952;21.714;2024-01-30T01:33:50;102788.28;;;-1.79;100.00
43071;BME280;36278;47.952;21.714;2024-01-30T01:36:15;102803.06;;;-1.73;100.00
43071;BME280;36278;47.952;21.714;2024-01-30T01:38:41;102802.25;;;-1.71;100.00
43071;BME280;36278;47.952;21.714;2024-01-30T01:41:06;102804.63;;;-1.84;100.00
43071;BME280;36278;47.952;21.714;2024-01-30T01:43:32;102806.38;;;-1.85;100.00
43071;BME280;36278;47.952;21.714;2024-01-30T01:45:57;102802.91;;;-1.85;100.00
43071;BME280;36278;47.952;21.714;2024-01-30T01:48:23;102803.53;;;-2.00;100.00
43071;BME280;36278;47.952;21.714;2024-01-30T01:50:48;102805.13;;;-2.07;100.00
43071;BME280;36278;47.952;21.714;2024-01-30T01:53:15;102805.22;;;-2.02;100.00
43071;BME280;36278;47.952;21.714;2024-01-30T01:55:41;102805.88;;;-2.14;100.00
43071;BME280;36278;47.952;21.714;2024-01-30T01:58:07;102805.84;;;-2.17;100.00
43071;BME280;36278;47.952;21.714;2024-01-30T02:00:34;102810.22;;;-2.14;100.00
43071;BME280;36278;47.952;21.714;2024-01-30T02:03:02;102806.75;;;-2.15;100.00
43071;BME280;36278;47.952;21.714;2024-01-30T02:05:28;102807.59;;;-2.16;100.00
43071;BME280;36278;47.952;21.714;2024-01-30T02:07:54;102794.56;;;-2.19;100.00
43071;BME280;36278;47.952;21.714;2024-01-30T02:10:19;102795.59;;;-2.09;100.00
43071;BME280;36278;47.952;21.714;2024-01-30T02:12:45;102805.97;;;-2.11;100.00
43071;BME280;36278;47.952;21.714;2024-01-30T02:15:13;102804.97;;;-2.17;100.00
43071;BME280;36278;47.952;21.714;2024-01-30T02:17:38;102797.09;;;-2.22;100.00
43071;BME280;36278;47.952;21.714;2024-01-30T02:20:04;102804.88;;;-2.23;100.00
43071;BME280;36278;47.952;21.714;2024-01-30T02:22:32;102807.41;;;-2.28;100.00
43071;BME280;36278;47.952;21.714;2024-01-30T02:24:59;102806.44;;;-2.32;100.00
43071;BME280;36278;47.952;21.714;2024-01-30T02:27:24;102795.97;;;-2.38;100.00
43071;BME280;36278;47.952;21.714;2024-01-30T02:29:50;102790.91;;;-2.30;100.00
43071;BME280;36278;47.952;21.714;2024-01-30T02:32:15;102801.25;;;-2.32;100.00
43071;BME280;36278;47.952;21.714;2024-01-30T02:34:41;102805.56;;;-2.34;100.00
43071;BME280;36278;47.952;21.714;2024-01-30T02:37:06;102806.44;;;-2.33;100.00
43071;BME280;36278;47.952;21.714;2024-01-30T02:39:32;102803.84;;;-2.33;100.00
43071;BME280;36278;47.952;21.714;2024-01-30T02:41:59;102802.09;;;-2.34;100.00
43071;BME280;36278;47.952;21.714;2024-01-30T02:44:24;102797.78;;;-2.32;100.00
43071;BME280;36278;47.952;21.714;2024-01-30T02:46:50;102802.91;;;-2.37;100.00
43071;BME280;36278;47.952;21.714;2024-01-30T02:49:15;102793.22;;;-2.45;100.00
43071;BME280;36278;47.952;21.714;2024-01-30T02:51:41;102799.38;;;-2.42;100.00
43071;BME280;36278;47.952;21.714;2024-01-30T02:54:06;102795.97;;;-2.38;100.00
43071;BME280;36278;47.952;21.714;2024-01-30T02:56:31;102801.16;;;-2.38;100.00
43071;BME280;36278;47.952;21.714;2024-01-30T02:58:57;102802.22;;;-2.27;100.00
43071;BME280;36278;47.952;21.714;2024-01-30T03:01:22;102802.34;;;-2.19;100.00
43071;BME280;36278;47.952;21.714;2024-01-30T03:03:49;102799.78;;;-2.17;100.00
43071;BME280;36278;47.952;21.714;2024-01-30T03:06:15;102798.06;;;-2.15;100.00
43071;BME280;36278;47.952;21.714;2024-01-30T03:08:43;102799.91;;;-2.10;100.00
43071;BME280;36278;47.952;21.714;2024-01-30T03:11:08;102802.28;;;-2.22;100.00
43071;BME280;36278;47.952;21.714;2024-01-30T03:13:33;102791.03;;;-2.22;100.00
43071;BME280;36278;47.952;21.714;2024-01-30T03:15:59;102791.03;;;-2.22;100.00
43071;BME280;36278;47.952;21.714;2024-01-30T03:18:24;102784.97;;;-2.21;100.00
43071;BME280;36278;47.952;21.714;2024-01-30T03:20:50;102779.91;;;-2.14;100.00
43071;BME280;36278;47.952;21.714;2024-01-30T03:23:15;102783.34;;;-2.16;100.00
43071;BME280;36278;47.952;21.714;2024-01-30T03:25:41;102788.66;;;-2.09;100.00
43071;BME280;36278;47.952;21.714;2024-01-30T03:28:06;102774.91;;;-2.03;100.00
43071;BME280;36278;47.952;21.714;2024-01-30T03:30:31;102776.72;;;-1.98;100.00
43071;BME280;36278;47.952;21.714;2024-01-30T03:32:57;102783.72;;;-1.93;100.00
43071;BME280;36278;47.952;21.714;2024-01-30T03:35:22;102782.81;;;-1.95;100.00
43071;BME280;36278;47.952;21.714;2024-01-30T03:37:48;102786.09;;;-2.07;100.00
43071;BME280;36278;47.952;21.714;2024-01-30T03:40:13;102787.69;;;-2.15;100.00
43071;BME280;36278;47.952;21.714;2024-01-30T03:42:39;102789.53;;;-2.10;100.00
43071;BME280;36278;47.952;21.714;2024-01-30T03:45:05;102784.31;;;-2.11;100.00
43071;BME280;36278;47.952;21.714;2024-01-30T03:47:30;102789.50;;;-2.11;100.00
43071;BME280;36278;47.952;21.714;2024-01-30T03:49:56;102791.03;;;-2.22;100.00
43071;BME280;36278;47.952;21.714;2024-01-30T03:52:21;102797.06;;;-2.25;100.00
43071;BME280;36278;47.952;21.714;2024-01-30T03:54:47;102788.25;;;-2.33;100.00
43071;BME280;36278;47.952;21.714;2024-01-30T03:57:12;102791.72;;;-2.33;100.00
43071;BME280;36278;47.952;21.714;2024-01-30T03:59:37;102782.25;;;-2.29;100.00
43071;BME280;36278;47.952;21.714;2024-01-30T04:02:03;102778.84;;;-2.28;100.00
43071;BME280;36278;47.952;21.714;2024-01-30T04:04:29;102781.47;;;-2.27;100.00
43071;BME280;36278;47.952;21.714;2024-01-30T04:06:54;102780.50;;;-2.32;100.00
43071;BME280;36278;47.952;21.714;2024-01-30T04:09:20;102776.03;;;-2.40;100.00
43071;BME280;36278;47.952;21.714;2024-01-30T04:11:45;102776.91;;;-2.38;100.00
43071;BME280;36278;47.952;21.714;2024-01-30T04:14:11;102774.31;;;-2.40;100.00
43071;BME280;36278;47.952;21.714;2024-01-30T04:16:36;102777.72;;;-2.42;100.00
43071;BME280;36278;47.952;21.714;2024-01-30T04:19:02;102784.69;;;-2.40;100.00
43071;BME280;36278;47.952;21.714;2024-01-30T04:21:27;102782.13;;;-2.37;100.00
43071;BME280;36278;47.952;21.714;2024-01-30T04:23:53;102785.44;;;-2.45;100.00
43071;BME280;36278;47.952;21.714;2024-01-30T04:26:18;102788.03;;;-2.45;100.00
43071;BME280;36278;47.952;21.714;2024-01-30T04:28:44;102786.28;;;-2.46;100.00
43071;BME280;36278;47.952;21.714;2024-01-30T04:31:10;102786.28;;;-2.46;100.00
43071;BME280;36278;47.952;21.714;2024-01-30T04:33:36;102787.91;;;-2.53;100.00
43071;BME280;36278;47.952;21.714;2024-01-30T04:36:02;102797.38;;;-2.55;100.00
43071;BME280;36278;47.952;21.714;2024-01-30T04:38:29;102793.88;;;-2.59;100.00
43071;BME280;36278;47.952;21.714;2024-01-30T04:40:54;102792.88;;;-2.65;100.00
43071;BME280;36278;47.952;21.714;2024-01-30T04:43:20;102791.88;;;-2.72;100.00
43071;BME280;36278;47.952;21.714;2024-01-30T04:45:45;102778.09;;;-2.69;100.00
43071;BME280;36278;47.952;21.714;2024-01-30T04:48:11;102789.47;;;-2.61;100.00
43071;BME280;36278;47.952;21.714;2024-01-30T04:50:36;102791.25;;;-2.60;100.00
43071;BME280;36278;47.952;21.714;2024-01-30T04:53:02;102787.03;;;-2.54;100.00
43071;BME280;36278;47.952;21.714;2024-01-30T04:55:27;102782.72;;;-2.53;100.00
43071;BME280;36278;47.952;21.714;2024-01-30T04:57:53;102784.38;;;-2.57;100.00
43071;BME280;36278;47.952;21.714;2024-01-30T05:00:18;102791.41;;;-2.51;100.00
43071;BME280;36278;47.952;21.714;2024-01-30T05:02:44;102798.97;;;-2.63;100.00
43071;BME280;36278;47.952;21.714;2024-01-30T05:05:09;102800.53;;;-2.71;100.00
43071;BME280;36278;47.952;21.714;2024-01-30T05:07:36;102804.72;;;-2.78;100.00
43071;BME280;36278;47.952;21.714;2024-01-30T05:10:01;102800.47;;;-2.76;100.00
43071;BME280;36278;47.952;21.714;2024-01-30T05:12:27;102799.66;;;-2.73;100.00
43071;BME280;36278;47.952;21.714;2024-01-30T05:14:52;102807.44;;;-2.72;100.00
43071;BME280;36278;47.952;21.714;2024-01-30T05:17:18;102816.97;;;-2.72;100.00
43071;BME280;36278;47.952;21.714;2024-01-30T05:19:43;102805.75;;;-2.70;100.00
43071;BME280;36278;47.952;21.714;2024-01-30T05:22:09;102817.09;;;-2.66;100.00
43071;BME280;36278;47.952;21.714;2024-01-30T05:24:36;102820.56;;;-2.64;100.00
43071;BME280;36278;47.952;21.714;2024-01-30T05:27:02;102814.41;;;-2.69;100.00
43071;BME280;36278;47.952;21.714;2024-01-30T05:29:27;102817.69;;;-2.79;100.00
43071;BME280;36278;47.952;21.714;2024-01-30T05:31:53;102808.88;;;-2.88;100.00
43071;BME280;36278;47.952;21.714;2024-01-30T05:34:19;102824.56;;;-2.82;100.00
43071;BME280;36278;47.952;21.714;2024-01-30T05:36:44;102823.88;;;-2.73;100.00
43071;BME280;36278;47.952;21.714;2024-01-30T05:39:10;102823.75;;;-2.77;100.00
43071;BME280;36278;47.952;21.714;2024-01-30T05:41:36;102830.91;;;-2.67;100.00
43071;BME280;36278;47.952;21.714;2024-01-30T05:44:01;102830.19;;;-2.59;100.00
43071;BME280;36278;47.952;21.714;2024-01-30T05:46:27;102825.78;;;-2.63;100.00
43071;BME280;36278;47.952;21.714;2024-01-30T05:48:52;102826.66;;;-2.62;100.00
43071;BME280;36278;47.952;21.714;2024-01-30T05:51:18;102828.38;;;-2.63;100.00
43071;BME280;36278;47.952;21.714;2024-01-30T05:53:43;102814.31;;;-2.75;100.00
43071;BME280;36278;47.952;21.714;2024-01-30T05:56:09;102826.59;;;-2.65;100.00
43071;BME280;36278;47.952;21.714;2024-01-30T05:58:34;102819.75;;;-2.62;100.00
43071;BME280;36278;47.952;21.714;2024-01-30T06:01:00;102825.91;;;-2.57;100.00
43071;BME280;36278;47.952;21.714;2024-01-30T06:03:25;102826.81;;;-2.53;100.00
43071;BME280;36278;47.952;21.714;2024-01-30T06:05:51;102830.50;;;-2.43;100.00
43071;BME280;36278;47.952;21.714;2024-01-30T06:08:17;102835.75;;;-2.39;100.00
43071;BME280;36278;47.952;21.714;2024-01-30T06:10:43;102825.31;;;-2.42;100.00
43071;BME280;36278;47.952;21.714;2024-01-30T06:13:08;102831.53;;;-2.34;100.00
43071;BME280;36278;47.952;21.714;2024-01-30T06:15:33;102832.41;;;-2.32;100.00
43071;BME280;36278;47.952;21.714;2024-01-30T06:17:59;102832.41;;;-2.32;100.00
43071;BME280;36278;47.952;21.714;2024-01-30T06:20:25;102835.84;;;-2.34;100.00
43071;BME280;36278;47.952;21.714;2024-01-30T06:22:50;102820.25;;;-2.36;100.00
43071;BME280;36278;47.952;21.714;2024-01-30T06:25:16;102822.75;;;-2.40;100.00
43071;BME280;36278;47.952;21.714;2024-01-30T06:27:42;102811.53;;;-2.38;100.00
43071;BME280;36278;47.952;21.714;2024-01-30T06:30:08;102821.19;;;-2.29;100.00
43071;BME280;36278;47.952;21.714;2024-01-30T06:32:35;102827.31;;;-2.27;100.00
43071;BME280;36278;47.952;21.714;2024-01-30T06:35:01;102820.47;;;-2.22;100.00
43071;BME280;36278;47.952;21.714;2024-01-30T06:37:27;102816.19;;;-2.20;100.00
43071;BME280;36278;47.952;21.714;2024-01-30T06:39:53;102824.09;;;-2.12;100.00
43071;BME280;36278;47.952;21.714;2024-01-30T06:42:18;102824.09;;;-2.12;100.00
43071;BME280;36278;47.952;21.714;2024-01-30T06:44:44;102834.59;;;-2.06;100.00
43071;BME280;36278;47.952;21.714;2024-01-30T06:47:10;102833.69;;;-2.08;100.00
43071;BME280;36278;47.952;21.714;2024-01-30T06:49:35;102827.69;;;-2.04;100.00
43071;BME280;36278;47.952;21.714;2024-01-30T06:52:06;102840.88;;;-1.92;100.00
43071;BME280;36278;47.952;21.714;2024-01-30T06:54:32;102839.19;;;-1.90;100.00
43071;BME280;36278;47.952;21.714;2024-01-30T06:56:58;102836.78;;;-1.79;100.00
43071;BME280;36278;47.952;21.714;2024-01-30T06:59:24;102829.69;;;-1.88;100.00
43071;BME280;36278;47.952;21.714;2024-01-30T07:01:49;102841.88;;;-1.84;100.00
43071;BME280;36278;47.952;21.714;2024-01-30T07:04:14;102842.78;;;-1.82;100.00
43071;BME280;36278;47.952;21.714;2024-01-30T07:06:41;102844.69;;;-1.70;100.00
43071;BME280;36278;47.952;21.714;2024-01-30T07:09:06;102838.75;;;-1.63;100.00
43071;BME280;36278;47.952;21.714;2024-01-30T07:11:32;102844.09;;;-1.54;100.00
43071;BME280;36278;47.952;21.714;2024-01-30T07:13:57;102840.69;;;-1.48;100.00
43071;BME280;36278;47.952;21.714;2024-01-30T07:16:23;102837.50;;;-1.29;100.00
43071;BME280;36278;47.952;21.714;2024-01-30T07:18:49;102840.25;;;-1.18;100.00
43071;BME280;36278;47.952;21.714;2024-01-30T07:21:15;102841.22;;;-1.08;100.00
43071;BME280;36278;47.952;21.714;2024-01-30T07:23:40;102838.63;;;-1.07;100.00
43071;BME280;36278;47.952;21.714;2024-01-30T07:26:07;102829.19;;;-0.99;100.00
43071;BME280;36278;47.952;21.714;2024-01-30T07:28:34;102838.81;;;-0.92;100.00
43071;BME280;36278;47.952;21.714;2024-01-30T07:31:00;102834.53;;;-0.90;100.00
43071;BME280;36278;47.952;21.714;2024-01-30T07:33:26;102841.63;;;-0.76;100.00
43071;BME280;36278;47.952;21.714;2024-01-30T07:35:52;102843.44;;;-0.71;100.00
43071;BME280;36278;47.952;21.714;2024-01-30T07:38:18;102849.63;;;-0.58;100.00
43071;BME280;36278;47.952;21.714;2024-01-30T07:40:44;102828.84;;;-0.55;100.00
43071;BME280;36278;47.952;21.714;2024-01-30T07:43:10;102844.72;;;-0.31;100.00
43071;BME280;36278;47.952;21.714;2024-01-30T07:45:35;102842.13;;;-0.29;100.00
43071;BME280;36278;47.952;21.714;2024-01-30T07:48:02;102850.09;;;-0.12;100.00
43071;BME280;36278;47.952;21.714;2024-01-30T07:50:28;102848.41;;;-0.07;100.00
43071;BME280;36278;47.952;21.714;2024-01-30T07:52:55;102844.97;;;-0.03;100.00
43071;BME280;36278;47.952;21.714;2024-01-30T07:58:23;102846.94;;;0.25;100.00
43071;BME280;36278;47.952;21.714;2024-01-30T08:00:49;102845.28;;;0.37;100.00
43071;BME280;36278;47.952;21.714;2024-01-30T08:03:16;102845.31;;;0.41;100.00
43071;BME280;36278;47.952;21.714;2024-01-30T08:05:43;102839.31;;;0.54;100.00
43071;BME280;36278;47.952;21.714;2024-01-30T08:08:09;102836.78;;;0.68;100.00
43071;BME280;36278;47.952;21.714;2024-01-30T08:10:36;102835.06;;;0.70;100.00
43071;BME280;36278;47.952;21.714;2024-01-30T08:13:02;102837.69;;;0.76;100.00
43071;BME280;36278;47.952;21.714;2024-01-30T08:15:27;102832.47;;;0.76;100.00
43071;BME280;36278;47.952;21.714;2024-01-30T08:17:52;102845.56;;;0.89;100.00
43071;BME280;36278;47.952;21.714;2024-01-30T08:20:23;102831.72;;;0.99;100.00
43071;BME280;36278;47.952;21.714;2024-01-30T08:22:49;102838.75;;;1.18;100.00
43071;BME280;36278;47.952;21.714;2024-01-30T08:25:14;102844.91;;;1.32;100.00
43071;BME280;36278;47.952;21.714;2024-01-30T08:27:40;102844.03;;;1.33;100.00
43071;BME280;36278;47.952;21.714;2024-01-30T08:30:06;102854.47;;;1.30;100.00
43071;BME280;36278;47.952;21.714;2024-01-30T08:32:32;102849.31;;;1.47;100.00
43071;BME280;36278;47.952;21.714;2024-01-30T08:34:58;102861.50;;;1.57;100.00
43071;BME280;36278;47.952;21.714;2024-01-30T08:37:24;102860.66;;;1.74;100.00
43071;BME280;36278;47.952;21.714;2024-01-30T08:39:49;102860.66;;;1.86;100.00
43071;BME280;36278;47.952;21.714;2024-01-30T08:42:15;102850.22;;;1.92;100.00
43071;BME280;36278;47.952;21.714;2024-01-30T08:44:41;102847.63;;;2.01;100.00
43071;BME280;36278;47.952;21.714;2024-01-30T08:47:07;102853.75;;;2.12;100.00
43071;BME280;36278;47.952;21.714;2024-01-30T08:49:32;102851.97;;;2.30;99.88
43071;BME280;36278;47.952;21.714;2024-01-30T08:51:58;102863.31;;;2.24;98.87
43071;BME280;36278;47.952;21.714;2024-01-30T08:54:23;102856.31;;;2.35;99.82
43071;BME280;36278;47.952;21.714;2024-01-30T08:56:49;102850.22;;;2.42;99.06
43071;BME280;36278;47.952;21.714;2024-01-30T08:59:15;102856.28;;;2.50;98.38
43071;BME280;36278;47.952;21.714;2024-01-30T09:01:40;102856.31;;;2.46;98.49
43071;BME280;36278;47.952;21.714;2024-01-30T09:04:05;102860.63;;;2.59;98.02
43071;BME280;36278;47.952;21.714;2024-01-30T09:06:31;102858.03;;;2.64;96.84
43071;BME280;36278;47.952;21.714;2024-01-30T09:08:57;102858.03;;;2.59;97.05
43071;BME280;36278;47.952;21.714;2024-01-30T09:11:23;102865.03;;;2.62;97.24
43071;BME280;36278;47.952;21.714;2024-01-30T09:13:48;102863.25;;;2.64;96.87
43071;BME280;36278;47.952;21.714;2024-01-30T09:16:14;102864.13;;;2.67;97.34
43071;BME280;36278;47.952;21.714;2024-01-30T09:18:41;102872.84;;;2.78;96.66
43071;BME280;36278;47.952;21.714;2024-01-30T09:21:07;102862.31;;;2.91;96.64
43071;BME280;36278;47.952;21.714;2024-01-30T09:23:32;102860.53;;;3.00;93.29
43071;BME280;36278;47.952;21.714;2024-01-30T09:25:59;102856.31;;;2.53;97.07
43071;BME280;36278;47.952;21.714;2024-01-30T09:28:24;102859.69;;;2.89;96.85
43071;BME280;36278;47.952;21.714;2024-01-30T09:30:50;102857.03;;;3.11;94.79
43071;BME280;36278;47.952;21.714;2024-01-30T09:33:15;102859.50;;;3.36;93.01
43071;BME280;36278;47.952;21.714;2024-01-30T09:35:40;102863.84;;;3.44;91.69
43071;BME280;36278;47.952;21.714;2024-01-30T09:38:06;102853.31;;;3.54;91.75
43071;BME280;36278;47.952;21.714;2024-01-30T09:40:31;102848.84;;;3.65;91.55
43071;BME280;36278;47.952;21.714;2024-01-30T09:42:58;102853.16;;;3.74;91.81
43071;BME280;36278;47.952;21.714;2024-01-30T09:45:26;102843.56;;;3.72;92.52
43071;BME280;36278;47.952;21.714;2024-01-30T09:47:52;102839.16;;;3.78;92.24
43071;BME280;36278;47.952;21.714;2024-01-30T09:50:18;102841.00;;;3.65;92.77
43071;BME280;36278;47.952;21.714;2024-01-30T09:52:45;102834.97;;;3.48;95.14
43071;BME280;36278;47.952;21.714;2024-01-30T09:55:11;102832.31;;;3.56;96.27
43071;BME280;36278;47.952;21.714;2024-01-30T09:57:36;102835.78;;;3.58;95.86
43071;BME280;36278;47.952;21.714;2024-01-30T10:00:03;102836.47;;;3.87;94.60
43071;BME280;36278;47.952;21.714;2024-01-30T10:02:31;102835.56;;;3.90;93.24
43071;BME280;36278;47.952;21.714;2024-01-30T10:04:57;102834.56;;;4.06;92.99
43071;BME280;36278;47.952;21.714;2024-01-30T10:07:23;102832.72;;;4.19;92.82
43071;BME280;36278;47.952;21.714;2024-01-30T10:09:48;102823.84;;;4.34;92.25
43071;BME280;36278;47.952;21.714;2024-01-30T10:12:14;102820.13;;;4.55;92.16
43071;BME280;36278;47.952;21.714;2024-01-30T10:14:41;102820.19;;;4.50;91.28
43071;BME280;36278;47.952;21.714;2024-01-30T10:17:09;102817.63;;;4.39;90.99
43071;BME280;36278;47.952;21.714;2024-01-30T10:19:41;102821.59;;;3.92;94.74
43071;BME280;36278;47.952;21.714;2024-01-30T10:22:07;102818.00;;;4.01;96.89
43071;BME280;36278;47.952;21.714;2024-01-30T10:24:33;102811.66;;;4.27;95.00
43071;BME280;36278;47.952;21.714;2024-01-30T10:26:59;102811.03;;;3.99;95.31
43071;BME280;36278;47.952;21.714;2024-01-30T10:29:25;102810.19;;;3.95;98.01
43071;BME280;36278;47.952;21.714;2024-01-30T10:32:01;102809.91;;;4.27;94.68
43071;BME280;36278;47.952;21.714;2024-01-30T10:34:27;102806.28;;;4.40;94.01
43071;BME280;36278;47.952;21.714;2024-01-30T10:37:02;102800.13;;;4.43;93.34
43071;BME280;36278;47.952;21.714;2024-01-30T10:39:31;102791.91;;;4.72;91.79
43071;BME280;36278;47.952;21.714;2024-01-30T10:42:04;102790.78;;;4.94;90.17
43071;BME280;36278;47.952;21.714;2024-01-30T10:44:39;102782.81;;;5.00;88.55
43071;BME280;36278;47.952;21.714;2024-01-30T10:47:11;102785.13;;;5.25;87.66
43071;BME280;36278;47.952;21.714;2024-01-30T10:49:39;102778.84;;;5.33;87.83
43071;BME280;36278;47.952;21.714;2024-01-30T10:52:08;102774.41;;;5.39;87.71
43071;BME280;36278;47.952;21.714;2024-01-30T10:54:34;102775.00;;;4.97;89.68
43071;BME280;36278;47.952;21.714;2024-01-30T10:57:01;102766.09;;;5.04;89.19
43071;BME280;36278;47.952;21.714;2024-01-30T10:59:30;102772.09;;;5.17;87.04
43071;BME280;36278;47.952;21.714;2024-01-30T11:01:58;102764.88;;;5.31;86.16
43071;BME280;36278;47.952;21.714;2024-01-30T11:04:24;102766.31;;;5.51;84.54
43071;BME280;36278;47.952;21.714;2024-01-30T11:06:50;102760.16;;;5.53;84.37
43071;BME280;36278;47.952;21.714;2024-01-30T11:09:19;102766.06;;;5.68;84.07
43071;BME280;36278;47.952;21.714;2024-01-30T11:11:51;102762.31;;;5.82;83.51
43071;BME280;36278;47.952;21.714;2024-01-30T11:14:24;102759.53;;;5.95;82.15
43071;BME280;36278;47.952;21.714;2024-01-30T11:16:53;102763.63;;;6.09;79.74
43071;BME280;36278;47.952;21.714;2024-01-30T11:19:25;102767.25;;;6.04;80.12
43071;BME280;36278;47.952;21.714;2024-01-30T11:21:53;102760.63;;;5.23;83.46
43071;BME280;36278;47.952;21.714;2024-01-30T11:24:20;102760.63;;;5.23;84.47
43071;BME280;36278;47.952;21.714;2024-01-30T11:27:09;102759.22;;;5.57;81.64
43071;BME280;36278;47.952;21.714;2024-01-30T11:29:38;102762.53;;;5.69;81.03
43071;BME280;36278;47.952;21.714;2024-01-30T11:32:05;102755.19;;;5.90;78.21
43071;BME280;36278;47.952;21.714;2024-01-30T11:34:32;102753.84;;;6.16;77.70
43071;BME280;36278;47.952;21.714;2024-01-30T11:37:03;102750.88;;;6.36;76.36
43071;BME280;36278;47.952;21.714;2024-01-30T11:39:32;102748.69;;;6.56;74.10
43071;BME280;36278;47.952;21.714;2024-01-30T11:41:59;102750.19;;;6.69;72.18
43071;BME280;36278;47.952;21.714;2024-01-30T11:44:25;102745.16;;;6.57;72.42
43071;BME280;36278;47.952;21.714;2024-01-30T11:46:52;102743.25;;;6.65;72.02
43071;BME280;36278;47.952;21.714;2024-01-30T11:49:18;102741.09;;;6.41;71.84
43071;BME280;36278;47.952;21.714;2024-01-30T11:51:45;102744.44;;;6.49;71.93
43071;BME280;36278;47.952;21.714;2024-01-30T11:54:11;102741.44;;;6.67;72.04
43071;BME280;36278;47.952;21.714;2024-01-30T11:56:37;102743.72;;;6.86;71.42
43071;BME280;36278;47.952;21.714;2024-01-30T11:59:04;102736.44;;;6.97;70.25
43071;BME280;36278;47.952;21.714;2024-01-30T12:01:31;102728.44;;;7.00;70.20
43071;BME280;36278;47.952;21.714;2024-01-30T12:03:57;102724.06;;;7.38;69.19
43071;BME280;36278;47.952;21.714;2024-01-30T12:06:23;102724.22;;;7.67;68.60
43071;BME280;36278;47.952;21.714;2024-01-30T12:08:58;102730.78;;;6.73;69.76
43071;BME280;36278;47.952;21.714;2024-01-30T12:11:24;102715.44;;;6.94;71.63
43071;BME280;36278;47.952;21.714;2024-01-30T12:13:51;102717.88;;;7.39;70.51
43071;BME280;36278;47.952;21.714;2024-01-30T12:16:18;102709.56;;;7.90;68.30
43071;BME280;36278;47.952;21.714;2024-01-30T12:18:43;102703.50;;;8.19;65.94
43071;BME280;36278;47.952;21.714;2024-01-30T12:21:09;102711.06;;;8.32;65.40
43071;BME280;36278;47.952;21.714;2024-01-30T12:23:35;102704.72;;;8.39;65.50
43071;BME280;36278;47.952;21.714;2024-01-30T12:26:01;102707.72;;;7.93;66.30
43071;BME280;36278;47.952;21.714;2024-01-30T12:28:29;102706.41;;;8.09;66.74
43071;BME280;36278;47.952;21.714;2024-01-30T12:31:04;102697.38;;;8.18;65.96
43071;BME280;36278;47.952;21.714;2024-01-30T12:33:30;102698.06;;;8.25;65.19